ZBC5 weather

Jeppesen Avia Club Airport
Bakbakty, Almaty Region, Kazakhstan

Public forecast

Using degrees Celsius for public forecast. Weather courtesy of forecast.io.

Closest aviation weather report (METAR) to Jeppesen Avia Club Airport

Closest report is Almaty Airport, 74.8 nm (138.5 km) SSE. Retrieved 2020/02/18 00:30 UTC (0 seconds ago):

UAAA 180030Z 00000MPS 3400 BR SCT050 BKN100 M03/M05 Q1028 R05L/CLRD65 R05R/3///50 NOSIG

Closest aviation forecast (TAF) to Jeppesen Avia Club Airport

Closest forecast is Almaty Airport, 74.8 nm (138.5 km) SSE. Retrieved 2020-02-18 00:21 UTC (0 seconds ago):

TAF UAAA 172300Z 1800/1824 26004MPS 1200 -SHSN BR BKN006 OVC011CB TXM02/1808Z TNM04/1801Z TEMPO 1800/1810 32003G08MPS 0500 SHSN FZFG BKN003 OVC008CB BECMG 1810/1811 36003MPS 2000 -SHSN BR TEMPO 1810/1816 27003MPS 0800 SN FZFG VV003 TEMPO 1816/1824 02003MPS 0300 -SN FZFG VV002